This is the latest recevied weather packets stored in our database for station/object OM6ABF-11. If no packets are shown the sender has not sent any weather packets the latest 10 day(s).
| Time | Temp. | Humidity | Pressure | Rain* | Wind** | Luminosity | Snow |
|---|---|---|---|---|---|---|---|
| 1777549686 | 13.33° C | 22% | 1028.4 hPa | - | - | - | - |
| 1777548786 | 13.89° C | 22% | 1028.5 hPa | - | - | - | - |
| 1777547885 | 12.78° C | 26% | 1028.7 hPa | - | - | - | - |
| 1777546985 | 12.78° C | 26% | 1028.8 hPa | - | - | - | - |
| 1777546084 | 13.33° C | 23% | 1028.8 hPa | - | - | - | - |
| 1777545185 | 10° C | 28% | 1029.2 hPa | - | - | - | - |
| 1777544286 | 11.67° C | 25% | 1029.2 hPa | - | - | - | - |
| 1777543387 | 8.89° C | 29% | 1029.3 hPa | - | - | - | - |
| 1777542488 | 8.33° C | 30% | 1029.5 hPa | - | - | - | - |
| 1777541587 | 8.33° C | 30% | 1029.5 hPa | - | - | - | - |
| 1777540687 | 8.33° C | 30% | 1029.4 hPa | - | - | - | - |
| 1777539787 | 7.22° C | 31% | 1029.6 hPa | - | - | - | - |
| 1777538887 | 7.22° C | 31% | 1029.8 hPa | - | - | - | - |
| 1777537987 | 7.22° C | 32% | 1029.7 hPa | - | - | - | - |
| 1777537087 | 6.67° C | 31% | 1029.8 hPa | - | - | - | - |
| 1777536187 | 6.11° C | 33% | 1029.9 hPa | - | - | - | - |
| 1777535286 | 5.56° C | 34% | 1029.9 hPa | - | - | - | - |
| 1777534386 | 5° C | 35% | 1030.1 hPa | - | - | - | - |
| 1777533485 | 4.44° C | 36% | 1030 hPa | - | - | - | - |
| 1777532585 | 4.44° C | 36% | 1030 hPa | - | - | - | - |
| 1777531684 | 4.44° C | 38% | 1030.4 hPa | - | - | - | - |
| 1777530784 | 3.89° C | 37% | 1030.3 hPa | - | - | - | - |
| 1777529883 | 3.89° C | 42% | 1030.1 hPa | - | - | - | - |
| 1777528983 | 3.33° C | 43% | 1030.1 hPa | - | - | - | - |
| 1777528083 | 2.78° C | 46% | 1029.9 hPa | - | - | - | - |
* Rain since midnight (hover to see other rain measurements)
** Current wind speed in m/s (hover to see current wind gust speed)